sensor_id;sensor_type;location;lat;lon;timestamp;pressure;altitude;pressure_sealevel;temperature;humidity
8294;BME280;4185;41.506;24.938;2023-03-04T00:02:12;93500.47;;;4.83;100.00
8294;BME280;4185;41.506;24.938;2023-03-04T00:04:39;93499.25;;;4.75;100.00
8294;BME280;4185;41.506;24.938;2023-03-04T00:07:06;93501.78;;;4.69;100.00
8294;BME280;4185;41.506;24.938;2023-03-04T00:09:33;93500.44;;;4.74;100.00
8294;BME280;4185;41.506;24.938;2023-03-04T00:12:01;93491.91;;;4.75;100.00
8294;BME280;4185;41.506;24.938;2023-03-04T00:14:28;93484.44;;;4.70;100.00
8294;BME280;4185;41.506;24.938;2023-03-04T00:16:55;93495.50;;;4.72;100.00
8294;BME280;4185;41.506;24.938;2023-03-04T00:19:22;93504.78;;;4.71;100.00
8294;BME280;4185;41.506;24.938;2023-03-04T00:21:49;93510.75;;;4.66;100.00
8294;BME280;4185;41.506;24.938;2023-03-04T00:24:16;93507.78;;;4.64;100.00
8294;BME280;4185;41.506;24.938;2023-03-04T00:26:42;93504.31;;;4.64;100.00
8294;BME280;4185;41.506;24.938;2023-03-04T00:29:12;93506.25;;;4.63;100.00
8294;BME280;4185;41.506;24.938;2023-03-04T00:31:39;93514.78;;;4.62;100.00
8294;BME280;4185;41.506;24.938;2023-03-04T00:34:06;93498.34;;;4.60;100.00
8294;BME280;4185;41.506;24.938;2023-03-04T00:36:32;93505.38;;;4.57;100.00
8294;BME280;4185;41.506;24.938;2023-03-04T00:38:59;93510.88;;;4.54;100.00
8294;BME280;4185;41.506;24.938;2023-03-04T00:41:26;93515.81;;;4.46;100.00
8294;BME280;4185;41.506;24.938;2023-03-04T00:43:53;93519.09;;;4.41;100.00
8294;BME280;4185;41.506;24.938;2023-03-04T00:46:21;93522.06;;;4.43;100.00
8294;BME280;4185;41.506;24.938;2023-03-04T00:48:48;93517.44;;;4.44;100.00
8294;BME280;4185;41.506;24.938;2023-03-04T00:51:15;93517.31;;;4.47;100.00
8294;BME280;4185;41.506;24.938;2023-03-04T00:53:41;93512.53;;;4.51;100.00
8294;BME280;4185;41.506;24.938;2023-03-04T00:56:08;93507.44;;;4.53;100.00
8294;BME280;4185;41.506;24.938;2023-03-04T00:58:35;93503.41;;;4.49;100.00
8294;BME280;4185;41.506;24.938;2023-03-04T01:01:04;93502.38;;;4.46;100.00
8294;BME280;4185;41.506;24.938;2023-03-04T01:03:32;93505.06;;;4.46;100.00
8294;BME280;4185;41.506;24.938;2023-03-04T01:05:59;93498.19;;;4.45;100.00
8294;BME280;4185;41.506;24.938;2023-03-04T01:08:26;93504.75;;;4.44;100.00
8294;BME280;4185;41.506;24.938;2023-03-04T01:10:53;93505.34;;;4.39;100.00
8294;BME280;4185;41.506;24.938;2023-03-04T01:13:20;93504.88;;;4.32;100.00
8294;BME280;4185;41.506;24.938;2023-03-04T01:15:46;93505.91;;;4.25;100.00
8294;BME280;4185;41.506;24.938;2023-03-04T01:18:13;93504.25;;;4.19;100.00
8294;BME280;4185;41.506;24.938;2023-03-04T01:20:42;93499.00;;;4.15;100.00
8294;BME280;4185;41.506;24.938;2023-03-04T01:23:08;93493.31;;;4.13;100.00
8294;BME280;4185;41.506;24.938;2023-03-04T01:25:35;93492.44;;;4.16;100.00
8294;BME280;4185;41.506;24.938;2023-03-04T01:28:02;93486.06;;;4.23;100.00
8294;BME280;4185;41.506;24.938;2023-03-04T01:30:29;93490.97;;;4.24;100.00
8294;BME280;4185;41.506;24.938;2023-03-04T01:32:56;93493.66;;;4.24;100.00
8294;BME280;4185;41.506;24.938;2023-03-04T01:35:23;93489.59;;;4.20;100.00
8294;BME280;4185;41.506;24.938;2023-03-04T01:37:51;93496.31;;;4.15;100.00
8294;BME280;4185;41.506;24.938;2023-03-04T01:40:18;93497.03;;;4.07;100.00
8294;BME280;4185;41.506;24.938;2023-03-04T01:42:45;93491.19;;;3.99;100.00
8294;BME280;4185;41.506;24.938;2023-03-04T01:45:13;93501.22;;;4.08;100.00
8294;BME280;4185;41.506;24.938;2023-03-04T01:47:43;93497.94;;;4.13;100.00
8294;BME280;4185;41.506;24.938;2023-03-04T01:50:18;93496.78;;;4.14;100.00
8294;BME280;4185;41.506;24.938;2023-03-04T01:52:45;93491.22;;;4.08;100.00
8294;BME280;4185;41.506;24.938;2023-03-04T01:55:16;93497.50;;;4.05;100.00
8294;BME280;4185;41.506;24.938;2023-03-04T01:57:44;93500.50;;;4.07;100.00
8294;BME280;4185;41.506;24.938;2023-03-04T02:00:27;93502.59;;;4.12;100.00
8294;BME280;4185;41.506;24.938;2023-03-04T02:02:59;93490.94;;;4.15;100.00
8294;BME280;4185;41.506;24.938;2023-03-04T02:05:27;93490.19;;;4.15;100.00
8294;BME280;4185;41.506;24.938;2023-03-04T02:07:54;93486.91;;;4.20;100.00
8294;BME280;4185;41.506;24.938;2023-03-04T02:10:24;93472.16;;;4.24;100.00
8294;BME280;4185;41.506;24.938;2023-03-04T02:12:51;93459.16;;;4.23;100.00
8294;BME280;4185;41.506;24.938;2023-03-04T02:15:19;93468.88;;;4.29;100.00
8294;BME280;4185;41.506;24.938;2023-03-04T02:17:46;93472.59;;;4.32;100.00
8294;BME280;4185;41.506;24.938;2023-03-04T02:20:22;93460.50;;;4.27;100.00
8294;BME280;4185;41.506;24.938;2023-03-04T02:22:56;93463.97;;;4.28;100.00
8294;BME280;4185;41.506;24.938;2023-03-04T02:25:32;93462.28;;;4.21;100.00
8294;BME280;4185;41.506;24.938;2023-03-04T02:28:02;93463.94;;;4.19;100.00
8294;BME280;4185;41.506;24.938;2023-03-04T02:30:29;93465.56;;;4.16;100.00
8294;BME280;4185;41.506;24.938;2023-03-04T02:32:56;93465.41;;;4.20;100.00
8294;BME280;4185;41.506;24.938;2023-03-04T02:35:23;93469.94;;;4.23;100.00
8294;BME280;4185;41.506;24.938;2023-03-04T02:37:50;93471.72;;;4.26;100.00
8294;BME280;4185;41.506;24.938;2023-03-04T02:40:22;93470.50;;;4.27;100.00
8294;BME280;4185;41.506;24.938;2023-03-04T02:42:50;93475.13;;;4.26;100.00
8294;BME280;4185;41.506;24.938;2023-03-04T02:45:38;93472.31;;;4.21;100.00
8294;BME280;4185;41.506;24.938;2023-03-04T02:48:06;93479.91;;;4.22;100.00
8294;BME280;4185;41.506;24.938;2023-03-04T02:50:35;93482.47;;;4.26;100.00
8294;BME280;4185;41.506;24.938;2023-03-04T02:53:04;93472.59;;;4.23;100.00
8294;BME280;4185;41.506;24.938;2023-03-04T02:55:31;93477.53;;;4.24;100.00
8294;BME280;4185;41.506;24.938;2023-03-04T02:57:58;93481.25;;;4.27;100.00
8294;BME280;4185;41.506;24.938;2023-03-04T03:00:25;93483.66;;;4.25;100.00
8294;BME280;4185;41.506;24.938;2023-03-04T03:02:54;93482.59;;;4.22;100.00
8294;BME280;4185;41.506;24.938;2023-03-04T03:05:22;93495.44;;;4.18;100.00
8294;BME280;4185;41.506;24.938;2023-03-04T03:07:49;93497.09;;;4.16;100.00
8294;BME280;4185;41.506;24.938;2023-03-04T03:10:17;93496.16;;;4.10;100.00
8294;BME280;4185;41.506;24.938;2023-03-04T03:12:44;93492.56;;;4.04;100.00
8294;BME280;4185;41.506;24.938;2023-03-04T03:15:11;93499.25;;;3.99;100.00
8294;BME280;4185;41.506;24.938;2023-03-04T03:17:38;93494.78;;;3.96;100.00
8294;BME280;4185;41.506;24.938;2023-03-04T03:20:08;93494.19;;;3.92;100.00
8294;BME280;4185;41.506;24.938;2023-03-04T03:22:36;93502.81;;;3.87;100.00
8294;BME280;4185;41.506;24.938;2023-03-04T03:25:04;93501.31;;;3.86;100.00
8294;BME280;4185;41.506;24.938;2023-03-04T03:27:31;93504.88;;;3.83;100.00
8294;BME280;4185;41.506;24.938;2023-03-04T03:29:58;93499.19;;;3.81;100.00
8294;BME280;4185;41.506;24.938;2023-03-04T03:32:24;93509.94;;;3.81;100.00
8294;BME280;4185;41.506;24.938;2023-03-04T03:34:51;93506.94;;;3.79;100.00
8294;BME280;4185;41.506;24.938;2023-03-04T03:37:19;93506.94;;;3.79;100.00
8294;BME280;4185;41.506;24.938;2023-03-04T03:39:46;93506.09;;;3.82;100.00
8294;BME280;4185;41.506;24.938;2023-03-04T03:42:13;93509.19;;;3.81;100.00
8294;BME280;4185;41.506;24.938;2023-03-04T03:44:40;93509.94;;;3.81;100.00
8294;BME280;4185;41.506;24.938;2023-03-04T03:47:07;93505.75;;;3.80;100.00
8294;BME280;4185;41.506;24.938;2023-03-04T03:49:34;93506.09;;;3.82;100.00
8294;BME280;4185;41.506;24.938;2023-03-04T03:52:01;93508.31;;;3.84;100.00
8294;BME280;4185;41.506;24.938;2023-03-04T03:54:29;93507.56;;;3.83;100.00
8294;BME280;4185;41.506;24.938;2023-03-04T03:56:56;93502.50;;;3.85;100.00
8294;BME280;4185;41.506;24.938;2023-03-04T03:59:22;93515.94;;;3.85;100.00
8294;BME280;4185;41.506;24.938;2023-03-04T04:01:49;93519.78;;;3.84;100.00
8294;BME280;4185;41.506;24.938;2023-03-04T04:04:16;93516.97;;;3.88;100.00
8294;BME280;4185;41.506;24.938;2023-03-04T04:06:43;93514.91;;;3.92;100.00
8294;BME280;4185;41.506;24.938;2023-03-04T04:09:10;93512.97;;;3.92;100.00
8294;BME280;4185;41.506;24.938;2023-03-04T04:11:38;93506.72;;;3.95;100.00
8294;BME280;4185;41.506;24.938;2023-03-04T04:14:05;93509.28;;;3.99;100.00
8294;BME280;4185;41.506;24.938;2023-03-04T04:16:32;93510.75;;;4.00;100.00
8294;BME280;4185;41.506;24.938;2023-03-04T04:18:59;93514.50;;;4.02;100.00
8294;BME280;4185;41.506;24.938;2023-03-04T04:21:26;93510.00;;;3.99;100.00
8294;BME280;4185;41.506;24.938;2023-03-04T04:23:52;93503.75;;;4.02;100.00
8294;BME280;4185;41.506;24.938;2023-03-04T04:26:19;93507.03;;;3.97;100.00
8294;BME280;4185;41.506;24.938;2023-03-04T04:28:47;93501.66;;;3.97;100.00
8294;BME280;4185;41.506;24.938;2023-03-04T04:31:14;93509.72;;;4.06;100.00
8294;BME280;4185;41.506;24.938;2023-03-04T04:33:41;93504.84;;;4.14;100.00
8294;BME280;4185;41.506;24.938;2023-03-04T04:36:12;93491.56;;;4.19;100.00
8294;BME280;4185;41.506;24.938;2023-03-04T04:38:39;93499.63;;;4.28;100.00
8294;BME280;4185;41.506;24.938;2023-03-04T04:41:17;93504.69;;;4.26;100.00
8294;BME280;4185;41.506;24.938;2023-03-04T04:43:45;93501.28;;;4.26;100.00
8294;BME280;4185;41.506;24.938;2023-03-04T04:46:13;93501.88;;;4.30;100.00
8294;BME280;4185;41.506;24.938;2023-03-04T04:48:40;93502.19;;;4.32;100.00
8294;BME280;4185;41.506;24.938;2023-03-04T04:51:07;93493.81;;;4.30;100.00
8294;BME280;4185;41.506;24.938;2023-03-04T04:53:34;93499.50;;;4.32;100.00
8294;BME280;4185;41.506;24.938;2023-03-04T04:56:08;93492.50;;;4.34;100.00
8294;BME280;4185;41.506;24.938;2023-03-04T04:58:35;93496.81;;;4.32;100.00
8294;BME280;4185;41.506;24.938;2023-03-04T05:01:02;93489.94;;;4.31;100.00
8294;BME280;4185;41.506;24.938;2023-03-04T05:03:31;93486.06;;;4.32;100.00
8294;BME280;4185;41.506;24.938;2023-03-04T05:05:58;93494.72;;;4.27;100.00
8294;BME280;4185;41.506;24.938;2023-03-04T05:08:25;93487.41;;;4.27;100.00
8294;BME280;4185;41.506;24.938;2023-03-04T05:10:52;93485.88;;;4.26;100.00
8294;BME280;4185;41.506;24.938;2023-03-04T05:13:19;93495.00;;;4.29;100.00
8294;BME280;4185;41.506;24.938;2023-03-04T05:15:45;93491.13;;;4.30;100.00
8294;BME280;4185;41.506;24.938;2023-03-04T05:18:12;93493.34;;;4.31;100.00
8294;BME280;4185;41.506;24.938;2023-03-04T05:20:41;93496.94;;;4.28;100.00
8294;BME280;4185;41.506;24.938;2023-03-04T05:23:08;93494.72;;;4.27;100.00
8294;BME280;4185;41.506;24.938;2023-03-04T05:25:34;93505.75;;;4.29;100.00
8294;BME280;4185;41.506;24.938;2023-03-04T05:28:01;93505.75;;;4.29;100.00
8294;BME280;4185;41.506;24.938;2023-03-04T05:30:29;93493.94;;;4.26;100.00
8294;BME280;4185;41.506;24.938;2023-03-04T05:32:56;93492.91;;;4.24;100.00
8294;BME280;4185;41.506;24.938;2023-03-04T05:35:23;93498.91;;;4.28;100.00
8294;BME280;4185;41.506;24.938;2023-03-04T05:37:51;93507.41;;;4.35;100.00
8294;BME280;4185;41.506;24.938;2023-03-04T05:40:18;93509.53;;;4.40;100.00
8294;BME280;4185;41.506;24.938;2023-03-04T05:42:45;93511.16;;;4.47;100.00
8294;BME280;4185;41.506;24.938;2023-03-04T05:45:12;93508.78;;;4.49;100.00
8294;BME280;4185;41.506;24.938;2023-03-04T05:47:38;93509.25;;;4.56;100.00
8294;BME280;4185;41.506;24.938;2023-03-04T05:50:06;93507.59;;;4.59;100.00
8294;BME280;4185;41.506;24.938;2023-03-04T05:52:33;93506.56;;;4.56;100.00
8294;BME280;4185;41.506;24.938;2023-03-04T05:55:01;93509.25;;;4.56;100.00
8294;BME280;4185;41.506;24.938;2023-03-04T05:57:28;93500.88;;;4.63;100.00
8294;BME280;4185;41.506;24.938;2023-03-04T05:59:55;93501.03;;;4.69;100.00
8294;BME280;4185;41.506;24.938;2023-03-04T06:02:22;93503.13;;;4.74;100.00
8294;BME280;4185;41.506;24.938;2023-03-04T06:04:48;93519.44;;;4.79;100.00
8294;BME280;4185;41.506;24.938;2023-03-04T06:07:15;93511.66;;;4.81;100.00
8294;BME280;4185;41.506;24.938;2023-03-04T06:09:42;93511.22;;;4.83;100.00
8294;BME280;4185;41.506;24.938;2023-03-04T06:12:11;93514.50;;;4.69;100.00
8294;BME280;4185;41.506;24.938;2023-03-04T06:14:38;93520.94;;;4.71;100.00
8294;BME280;4185;41.506;24.938;2023-03-04T06:17:05;93514.81;;;4.80;100.00
8294;BME280;4185;41.506;24.938;2023-03-04T06:19:32;93512.56;;;4.87;100.00
8294;BME280;4185;41.506;24.938;2023-03-04T06:21:59;93516.16;;;4.93;100.00
8294;BME280;4185;41.506;24.938;2023-03-04T06:24:26;93515.41;;;5.02;99.52
8294;BME280;4185;41.506;24.938;2023-03-04T06:26:53;93528.72;;;5.06;99.27
8294;BME280;4185;41.506;24.938;2023-03-04T06:29:21;93518.25;;;5.17;99.07
8294;BME280;4185;41.506;24.938;2023-03-04T06:31:48;93509.84;;;5.33;97.92
8294;BME280;4185;41.506;24.938;2023-03-04T06:34:15;93516.13;;;5.48;96.70
8294;BME280;4185;41.506;24.938;2023-03-04T06:36:41;93502.59;;;5.57;95.99
8294;BME280;4185;41.506;24.938;2023-03-04T06:39:09;93493.81;;;5.47;95.07
8294;BME280;4185;41.506;24.938;2023-03-04T06:41:36;93495.19;;;5.43;95.47
8294;BME280;4185;41.506;24.938;2023-03-04T06:44:03;93503.72;;;5.32;96.15
8294;BME280;4185;41.506;24.938;2023-03-04T06:46:32;93501.78;;;5.24;96.63
8294;BME280;4185;41.506;24.938;2023-03-04T06:48:59;93499.69;;;5.19;96.74
8294;BME280;4185;41.506;24.938;2023-03-04T06:51:26;93507.91;;;5.24;96.38
8294;BME280;4185;41.506;24.938;2023-03-04T06:53:53;93502.97;;;5.32;96.00
8294;BME280;4185;41.506;24.938;2023-03-04T06:56:21;93514.63;;;5.38;95.78
8294;BME280;4185;41.506;24.938;2023-03-04T06:58:47;93513.56;;;5.44;94.52
8294;BME280;4185;41.506;24.938;2023-03-04T07:01:15;93514.44;;;5.50;94.77
8294;BME280;4185;41.506;24.938;2023-03-04T07:03:44;93509.75;;;5.69;95.09
8294;BME280;4185;41.506;24.938;2023-03-04T07:06:12;93518.00;;;5.74;94.05
8294;BME280;4185;41.506;24.938;2023-03-04T07:08:40;93504.53;;;5.83;93.26
8294;BME280;4185;41.506;24.938;2023-03-04T07:11:07;93524.94;;;6.08;93.04
8294;BME280;4185;41.506;24.938;2023-03-04T07:13:35;93534.78;;;6.20;91.65
8294;BME280;4185;41.506;24.938;2023-03-04T07:16:03;93533.56;;;6.21;91.13
8294;BME280;4185;41.506;24.938;2023-03-04T07:18:30;93534.91;;;6.26;91.94
8294;BME280;4185;41.506;24.938;2023-03-04T07:20:58;93537.44;;;6.29;91.39
8294;BME280;4185;41.506;24.938;2023-03-04T07:23:25;93532.44;;;6.37;92.08
8294;BME280;4185;41.506;24.938;2023-03-04T07:25:52;93522.09;;;6.35;90.63
8294;BME280;4185;41.506;24.938;2023-03-04T07:28:19;93530.44;;;6.46;90.65
8294;BME280;4185;41.506;24.938;2023-03-04T07:30:46;93527.41;;;6.53;90.62
8294;BME280;4185;41.506;24.938;2023-03-04T07:33:13;93524.03;;;6.44;89.52
8294;BME280;4185;41.506;24.938;2023-03-04T07:35:40;93520.09;;;6.45;89.87
8294;BME280;4185;41.506;24.938;2023-03-04T07:38:08;93529.38;;;6.53;89.87
8294;BME280;4185;41.506;24.938;2023-03-04T07:40:35;93522.00;;;6.53;89.83
8294;BME280;4185;41.506;24.938;2023-03-04T07:43:03;93522.63;;;6.48;88.31
8294;BME280;4185;41.506;24.938;2023-03-04T07:45:30;93519.63;;;6.46;88.83
8294;BME280;4185;41.506;24.938;2023-03-04T07:47:57;93507.06;;;6.43;89.48
8294;BME280;4185;41.506;24.938;2023-03-04T07:50:24;93519.63;;;6.46;88.62
8294;BME280;4185;41.506;24.938;2023-03-04T07:52:51;93516.69;;;6.44;87.99
8294;BME280;4185;41.506;24.938;2023-03-04T07:55:19;93506.16;;;6.46;89.27
8294;BME280;4185;41.506;24.938;2023-03-04T07:57:46;93511.97;;;6.54;87.70
8294;BME280;4185;41.506;24.938;2023-03-04T08:00:15;93514.19;;;6.55;88.57
8294;BME280;4185;41.506;24.938;2023-03-04T08:02:42;93523.72;;;6.65;88.10
8294;BME280;4185;41.506;24.938;2023-03-04T08:05:09;93525.63;;;6.74;87.70
8294;BME280;4185;41.506;24.938;2023-03-04T08:07:36;93525.47;;;6.77;87.54
8294;BME280;4185;41.506;24.938;2023-03-04T08:10:04;93521.53;;;6.78;87.65
8294;BME280;4185;41.506;24.938;2023-03-04T08:12:34;93523.59;;;6.83;88.06
8294;BME280;4185;41.506;24.938;2023-03-04T08:15:01;93518.91;;;6.93;88.70
8294;BME280;4185;41.506;24.938;2023-03-04T08:17:28;93513.41;;;7.02;88.94
8294;BME280;4185;41.506;24.938;2023-03-04T08:19:55;93507.84;;;7.05;88.98
8294;BME280;4185;41.506;24.938;2023-03-04T08:22:22;93504.78;;;7.12;88.38
8294;BME280;4185;41.506;24.938;2023-03-04T08:24:48;93507.31;;;7.16;88.10
8294;BME280;4185;41.506;24.938;2023-03-04T08:27:15;93506.56;;;7.15;88.01
8294;BME280;4185;41.506;24.938;2023-03-04T08:29:44;93493.34;;;7.17;87.99
8294;BME280;4185;41.506;24.938;2023-03-04T08:32:11;93504.16;;;7.17;88.12
8294;BME280;4185;41.506;24.938;2023-03-04T08:34:38;93499.38;;;7.12;87.25
8294;BME280;4185;41.506;24.938;2023-03-04T08:37:05;93500.31;;;7.09;87.95
8294;BME280;4185;41.506;24.938;2023-03-04T08:39:31;93493.91;;;7.07;87.08
8294;BME280;4185;41.506;24.938;2023-03-04T08:42:00;93500.03;;;7.07;87.11
8294;BME280;4185;41.506;24.938;2023-03-04T08:44:27;93490.72;;;7.08;87.05
8294;BME280;4185;41.506;24.938;2023-03-04T08:46:55;93489.81;;;7.11;86.43
8294;BME280;4185;41.506;24.938;2023-03-04T08:49:22;93489.34;;;7.13;86.74
8294;BME280;4185;41.506;24.938;2023-03-04T08:51:49;93489.63;;;7.15;86.79
8294;BME280;4185;41.506;24.938;2023-03-04T08:54:16;93484.78;;;7.19;86.86
8294;BME280;4185;41.506;24.938;2023-03-04T08:56:43;93489.72;;;7.20;86.34
8294;BME280;4185;41.506;24.938;2023-03-04T08:59:10;93490.94;;;7.19;85.61
8294;BME280;4185;41.506;24.938;2023-03-04T09:01:37;93468.75;;;7.15;85.86
8294;BME280;4185;41.506;24.938;2023-03-04T09:04:05;93473.06;;;7.22;85.96
8294;BME280;4185;41.506;24.938;2023-03-04T09:06:32;93477.72;;;7.21;85.99
8294;BME280;4185;41.506;24.938;2023-03-04T09:08:59;93473.50;;;7.20;85.59
8294;BME280;4185;41.506;24.938;2023-03-04T09:11:27;93473.06;;;7.22;85.79
8294;BME280;4185;41.506;24.938;2023-03-04T09:13:54;93475.59;;;7.25;85.59
8294;BME280;4185;41.506;24.938;2023-03-04T09:16:21;93465.97;;;7.24;85.74
8294;BME280;4185;41.506;24.938;2023-03-04T09:18:48;93469.53;;;7.30;85.20
8294;BME280;4185;41.506;24.938;2023-03-04T09:21:16;93460.78;;;7.35;84.07
8294;BME280;4185;41.506;24.938;2023-03-04T09:23:43;93465.25;;;7.38;84.17
8294;BME280;4185;41.506;24.938;2023-03-04T09:26:16;93462.44;;;7.47;84.40
8294;BME280;4185;41.506;24.938;2023-03-04T09:28:44;93459.81;;;7.53;82.24
8294;BME280;4185;41.506;24.938;2023-03-04T09:31:12;93454.81;;;7.61;81.32
8294;BME280;4185;41.506;24.938;2023-03-04T09:33:39;93454.44;;;7.68;81.81
8294;BME280;4185;41.506;24.938;2023-03-04T09:36:08;93449.84;;;7.74;81.12
8294;BME280;4185;41.506;24.938;2023-03-04T09:38:37;93456.81;;;7.80;81.98
8294;BME280;4185;41.506;24.938;2023-03-04T09:41:07;93457.28;;;7.79;82.57
8294;BME280;4185;41.506;24.938;2023-03-04T09:43:35;93461.47;;;7.80;82.39
8294;BME280;4185;41.506;24.938;2023-03-04T09:46:06;93455.16;;;7.83;82.97
8294;BME280;4185;41.506;24.938;2023-03-04T09:48:39;93446.56;;;7.84;82.67
8294;BME280;4185;41.506;24.938;2023-03-04T09:51:18;93454.22;;;7.86;83.39
8294;BME280;4185;41.506;24.938;2023-03-04T09:54:03;93447.09;;;7.88;83.41
8294;BME280;4185;41.506;24.938;2023-03-04T09:56:32;93449.63;;;7.92;84.06
8294;BME280;4185;41.506;24.938;2023-03-04T09:59:06;93440.59;;;7.95;83.42
8294;BME280;4185;41.506;24.938;2023-03-04T10:01:40;93446.72;;;7.95;83.64
8294;BME280;4185;41.506;24.938;2023-03-04T10:04:11;93443.00;;;7.93;83.82
8294;BME280;4185;41.506;24.938;2023-03-04T10:06:40;93443.75;;;7.93;84.30
8294;BME280;4185;41.506;24.938;2023-03-04T10:09:12;93441.31;;;7.95;84.16
8294;BME280;4185;41.506;24.938;2023-03-04T10:11:44;93438.81;;;7.92;83.61
8294;BME280;4185;41.506;24.938;2023-03-04T10:14:31;93432.47;;;7.95;83.06
8294;BME280;4185;41.506;24.938;2023-03-04T10:17:04;93434.53;;;8.00;83.28
8294;BME280;4185;41.506;24.938;2023-03-04T10:19:42;93428.44;;;8.05;83.38
8294;BME280;4185;41.506;24.938;2023-03-04T10:22:18;93423.75;;;8.05;82.37
8294;BME280;4185;41.506;24.938;2023-03-04T10:24:46;93420.59;;;8.07;82.90
8294;BME280;4185;41.506;24.938;2023-03-04T10:27:16;93413.69;;;8.06;83.27
8294;BME280;4185;41.506;24.938;2023-03-04T10:29:44;93418.72;;;8.13;81.95
8294;BME280;4185;41.506;24.938;2023-03-04T10:32:13;93408.41;;;8.17;79.14
8294;BME280;4185;41.506;24.938;2023-03-04T10:34:42;93407.78;;;8.22;80.42
8294;BME280;4185;41.506;24.938;2023-03-04T10:37:09;93399.25;;;8.29;80.54
8294;BME280;4185;41.506;24.938;2023-03-04T10:39:38;93391.97;;;8.35;81.84
8294;BME280;4185;41.506;24.938;2023-03-04T10:42:22;93401.38;;;8.39;79.14
8294;BME280;4185;41.506;24.938;2023-03-04T10:44:52;93397.72;;;8.42;77.59
8294;BME280;4185;41.506;24.938;2023-03-04T10:47:22;93387.44;;;8.46;77.40
8294;BME280;4185;41.506;24.938;2023-03-04T10:49:50;93387.44;;;8.46;76.35
8294;BME280;4185;41.506;24.938;2023-03-04T10:52:25;93388.19;;;8.47;77.07
8294;BME280;4185;41.506;24.938;2023-03-04T10:54:54;93388.19;;;8.47;77.42
8294;BME280;4185;41.506;24.938;2023-03-04T10:57:32;93376.81;;;8.43;77.61
8294;BME280;4185;41.506;24.938;2023-03-04T10:59:59;93369.09;;;8.36;78.81
8294;BME280;4185;41.506;24.938;2023-03-04T11:02:28;93369.38;;;8.38;79.24
8294;BME280;4185;41.506;24.938;2023-03-04T11:05:05;93365.19;;;8.37;80.10
8294;BME280;4185;41.506;24.938;2023-03-04T11:07:38;93364.63;;;8.33;80.25
8294;BME280;4185;41.506;24.938;2023-03-04T11:10:10;93355.78;;;8.32;80.87
8294;BME280;4185;41.506;24.938;2023-03-04T11:12:38;93351.47;;;8.40;81.01
8294;BME280;4185;41.506;24.938;2023-03-04T11:15:17;93346.56;;;8.44;81.04
8294;BME280;4185;41.506;24.938;2023-03-04T11:17:47;93338.50;;;8.50;81.27
8294;BME280;4185;41.506;24.938;2023-03-04T11:20:20;93338.81;;;8.57;80.72
8294;BME280;4185;41.506;24.938;2023-03-04T11:22:52;93334.53;;;8.71;80.97
8294;BME280;4185;41.506;24.938;2023-03-04T11:25:26;93335.88;;;8.81;80.10
8294;BME280;4185;41.506;24.938;2023-03-04T11:27:56;93330.56;;;8.92;81.59
8294;BME280;4185;41.506;24.938;2023-03-04T11:30:37;93329.66;;;9.01;81.32
8294;BME280;4185;41.506;24.938;2023-03-04T11:33:13;93323.50;;;9.00;80.56
8294;BME280;4185;41.506;24.938;2023-03-04T11:35:47;93312.19;;;9.02;79.47
8294;BME280;4185;41.506;24.938;2023-03-04T11:38:18;93318.84;;;9.01;79.69
8294;BME280;4185;41.506;24.938;2023-03-04T11:40:49;93314.88;;;8.96;79.80
8294;BME280;4185;41.506;24.938;2023-03-04T11:43:24;93308.47;;;8.99;81.09
8294;BME280;4185;41.506;24.938;2023-03-04T11:48:53;93306.75;;;9.02;79.50
8294;BME280;4185;41.506;24.938;2023-03-04T11:51:31;93307.78;;;9.04;79.43
8294;BME280;4185;41.506;24.938;2023-03-04T11:54:16;93305.06;;;9.04;79.50
8294;BME280;4185;41.506;24.938;2023-03-04T11:56:46;93300.88;;;9.03;79.73
8294;BME280;4185;41.506;24.938;2023-03-04T11:59:25;93300.09;;;8.97;79.64
8294;BME280;4185;41.506;24.938;2023-03-04T12:02:15;93303.22;;;8.90;80.02
8294;BME280;4185;41.506;24.938;2023-03-04T12:05:08;93293.34;;;8.87;79.33
8294;BME280;4185;41.506;24.938;2023-03-04T12:10:46;93290.22;;;8.94;80.52
8294;BME280;4185;41.506;24.938;2023-03-04T12:13:29;93281.13;;;8.97;79.77
8294;BME280;4185;41.506;24.938;2023-03-04T12:16:10;93281.41;;;8.99;79.66
8294;BME280;4185;41.506;24.938;2023-03-04T12:18:55;93273.53;;;9.01;79.54
8294;BME280;4185;41.506;24.938;2023-03-04T12:21:47;93277.50;;;9.06;79.25
8294;BME280;4185;41.506;24.938;2023-03-04T12:24:26;93258.22;;;8.98;78.21
8294;BME280;4185;41.506;24.938;2023-03-04T12:27:00;93272.34;;;9.08;77.91
8294;BME280;4185;41.506;24.938;2023-03-04T12:29:36;93273.06;;;9.08;77.17
8294;BME280;4185;41.506;24.938;2023-03-04T12:32:14;93271.38;;;9.11;76.95
8294;BME280;4185;41.506;24.938;2023-03-04T12:34:59;93267.00;;;9.19;76.84
8294;BME280;4185;41.506;24.938;2023-03-04T12:37:39;93266.09;;;9.27;77.08
8294;BME280;4185;41.506;24.938;2023-03-04T12:40:32;93264.41;;;9.35;75.96
8294;BME280;4185;41.506;24.938;2023-03-04T12:43:08;93271.84;;;9.40;75.17
8294;BME280;4185;41.506;24.938;2023-03-04T12:45:43;93260.03;;;9.43;74.78
8294;BME280;4185;41.506;24.938;2023-03-04T12:48:22;93260.31;;;9.51;74.13
8294;BME280;4185;41.506;24.938;2023-03-04T12:51:01;93255.44;;;9.55;74.85
8294;BME280;4185;41.506;24.938;2023-03-04T12:53:38;93254.22;;;9.61;73.76
8294;BME280;4185;41.506;24.938;2023-03-04T12:56:20;93239.97;;;9.66;72.84
8294;BME280;4185;41.506;24.938;2023-03-04T12:58:48;93253.25;;;9.64;73.10
8294;BME280;4185;41.506;24.938;2023-03-04T13:01:22;93249.28;;;9.60;73.07
8294;BME280;4185;41.506;24.938;2023-03-04T13:03:56;93252.69;;;9.49;72.76
8294;BME280;4185;41.506;24.938;2023-03-04T13:06:42;93249.41;;;9.40;73.03
8294;BME280;4185;41.506;24.938;2023-03-04T13:09:18;93244.72;;;9.35;72.96
8294;BME280;4185;41.506;24.938;2023-03-04T13:11:54;93241.03;;;9.38;73.60
8294;BME280;4185;41.506;24.938;2023-03-04T13:14:29;93242.00;;;9.35;73.43
8294;BME280;4185;41.506;24.938;2023-03-04T13:16:58;93244.72;;;9.40;72.98
8294;BME280;4185;41.506;24.938;2023-03-04T13:19:48;93237.81;;;9.39;72.64
8294;BME280;4185;41.506;24.938;2023-03-04T13:22:33;93236.59;;;9.40;72.73
8294;BME280;4185;41.506;24.938;2023-03-04T13:25:37;93229.91;;;9.36;72.48
8294;BME280;4185;41.506;24.938;2023-03-04T13:28:24;93231.38;;;9.31;72.25
8294;BME280;4185;41.506;24.938;2023-03-04T13:31:15;93228.41;;;9.29;72.02
8294;BME280;4185;41.506;24.938;2023-03-04T13:33:57;93227.44;;;9.32;71.79
8294;BME280;4185;41.506;24.938;2023-03-04T13:36:28;93214.63;;;9.33;71.80
8294;BME280;4185;41.506;24.938;2023-03-04T13:38:58;93214.16;;;9.34;71.84